createdAt,value
2022-08-25T00:00:31.936Z,0
2022-08-25T00:01:31.345Z,0
2022-08-25T00:02:31.908Z,0
2022-08-25T00:03:35.975Z,0
2022-08-25T00:04:31.840Z,0
2022-08-25T00:08:35.078Z,0
2022-08-25T00:09:31.262Z,0
2022-08-25T00:10:31.844Z,0
2022-08-25T00:11:31.812Z,0
2022-08-25T00:12:31.828Z,0
2022-08-25T00:13:31.251Z,0
2022-08-25T00:14:31.815Z,0
2022-08-25T00:15:31.955Z,0
2022-08-25T00:16:31.832Z,0
2022-08-25T00:17:31.262Z,0
2022-08-25T00:18:31.814Z,0
2022-08-25T00:19:31.784Z,0
2022-08-25T00:20:31.800Z,0
2022-08-25T00:21:31.278Z,0
2022-08-25T00:22:31.807Z,0
2022-08-25T00:23:31.815Z,0
2022-08-25T00:24:31.847Z,0
2022-08-25T00:25:31.320Z,0
2022-08-25T00:26:32.032Z,0
2022-08-25T00:27:31.826Z,0
2022-08-25T00:28:31.823Z,0
2022-08-25T00:29:31.265Z,0
2022-08-25T00:30:31.827Z,0
2022-08-25T00:31:38.177Z,0
2022-08-25T00:32:31.824Z,0
2022-08-25T00:33:31.225Z,0
2022-08-25T00:34:31.841Z,0
2022-08-25T00:35:31.804Z,0
2022-08-25T00:36:31.818Z,0
2022-08-25T00:37:31.254Z,0
2022-08-25T00:38:32.633Z,0
2022-08-25T00:39:31.787Z,0
2022-08-25T00:40:31.892Z,0
2022-08-25T00:41:31.215Z,0
2022-08-25T00:42:31.800Z,0
2022-08-25T00:43:31.802Z,0
2022-08-25T00:44:31.813Z,0
2022-08-25T00:45:31.281Z,0
2022-08-25T00:46:31.913Z,0
2022-08-25T00:47:31.797Z,0
2022-08-25T00:48:31.913Z,0
2022-08-25T00:49:31.218Z,0
2022-08-25T00:50:31.793Z,0
2022-08-25T00:51:31.914Z,0
2022-08-25T00:52:31.916Z,0
2022-08-25T00:53:31.208Z,0
2022-08-25T00:54:31.786Z,0
2022-08-25T00:55:31.871Z,0
2022-08-25T00:56:31.807Z,0
2022-08-25T00:57:34.601Z,0
2022-08-25T00:58:31.812Z,0
2022-08-25T00:59:31.825Z,0
2022-08-25T01:00:31.814Z,0
2022-08-25T01:01:31.346Z,0
2022-08-25T01:02:31.837Z,0
2022-08-25T01:03:31.830Z,0
2022-08-25T01:04:31.938Z,0
2022-08-25T01:05:31.256Z,0
2022-08-25T01:06:31.802Z,0
2022-08-25T01:07:31.817Z,0
2022-08-25T01:08:32.212Z,0
2022-08-25T01:09:31.254Z,0
2022-08-25T01:10:31.788Z,0
2022-08-25T01:11:31.822Z,0
2022-08-25T01:12:31.820Z,0
2022-08-25T01:13:31.197Z,0
2022-08-25T01:14:31.823Z,0
2022-08-25T01:15:31.914Z,0
2022-08-25T01:16:31.961Z,0
2022-08-25T01:17:31.190Z,0
2022-08-25T01:18:31.855Z,0
2022-08-25T01:19:31.822Z,0
2022-08-25T01:20:31.842Z,0
2022-08-25T01:21:31.192Z,0
2022-08-25T01:22:31.805Z,0
2022-08-25T01:23:31.925Z,0
2022-08-25T01:24:31.815Z,0
2022-08-25T01:25:31.151Z,0
2022-08-25T01:26:31.777Z,0
2022-08-25T01:27:31.819Z,0
2022-08-25T01:28:31.799Z,0
2022-08-25T01:29:31.147Z,0
2022-08-25T01:30:31.845Z,0
2022-08-25T01:31:31.998Z,0
2022-08-25T01:32:31.823Z,0
2022-08-25T01:33:31.173Z,0
2022-08-25T01:34:31.773Z,0
2022-08-25T01:35:31.791Z,0
2022-08-25T01:36:31.828Z,0
2022-08-25T01:37:31.171Z,0
2022-08-25T01:38:31.787Z,0
2022-08-25T01:39:31.810Z,0
2022-08-25T01:40:32.069Z,0
2022-08-25T01:41:31.333Z,0
2022-08-25T01:42:31.945Z,0
2022-08-25T01:43:32.005Z,0
2022-08-25T01:44:31.947Z,0
2022-08-25T01:45:31.213Z,0
2022-08-25T01:46:32.000Z,0
2022-08-25T01:47:31.984Z,0
2022-08-25T01:48:31.794Z,0
2022-08-25T01:49:31.137Z,0
2022-08-25T01:50:31.829Z,0
2022-08-25T01:51:31.800Z,0
2022-08-25T01:52:31.810Z,0
2022-08-25T01:53:33.385Z,0
2022-08-25T01:54:31.911Z,0
2022-08-25T01:55:31.840Z,0
2022-08-25T01:56:31.825Z,0
2022-08-25T01:57:31.093Z,0
2022-08-25T01:58:31.785Z,0
2022-08-25T01:59:31.834Z,0
2022-08-25T02:00:31.839Z,0
2022-08-25T02:01:31.129Z,0
2022-08-25T02:02:31.929Z,0
2022-08-25T02:03:32.526Z,0
2022-08-25T02:04:31.834Z,0
2022-08-25T02:05:31.245Z,0
2022-08-25T02:06:31.816Z,0
2022-08-25T02:07:31.822Z,0
2022-08-25T02:08:31.813Z,0
2022-08-25T02:09:31.166Z,0
2022-08-25T02:10:31.932Z,0
2022-08-25T02:11:31.815Z,0
2022-08-25T02:12:31.803Z,0
2022-08-25T02:13:31.533Z,0
2022-08-25T02:14:31.789Z,0
2022-08-25T02:15:31.813Z,0
2022-08-25T02:16:31.933Z,0
2022-08-25T02:17:31.782Z,0
2022-08-25T02:18:31.822Z,0
2022-08-25T02:19:31.825Z,0
2022-08-25T02:20:31.809Z,0
2022-08-25T02:21:31.070Z,0
2022-08-25T02:22:31.822Z,0
2022-08-25T02:23:31.817Z,0
2022-08-25T02:24:31.813Z,0
2022-08-25T02:25:31.085Z,0
2022-08-25T02:26:31.811Z,0
2022-08-25T02:27:31.798Z,0
2022-08-25T02:28:31.806Z,0
2022-08-25T02:29:31.785Z,0
2022-08-25T02:30:31.878Z,0
2022-08-25T02:31:31.828Z,0
2022-08-25T02:32:31.805Z,0
2022-08-25T02:33:31.802Z,0
2022-08-25T02:34:31.884Z,0
2022-08-25T02:35:31.785Z,0
2022-08-25T02:36:31.829Z,0
2022-08-25T02:37:31.913Z,0
2022-08-25T02:38:31.886Z,0
2022-08-25T02:39:31.819Z,0
2022-08-25T02:40:31.864Z,0
2022-08-25T02:41:31.895Z,0
2022-08-25T02:42:31.819Z,0
2022-08-25T02:43:31.794Z,0
2022-08-25T02:44:31.863Z,0
2022-08-25T02:45:31.900Z,0
2022-08-25T02:46:31.794Z,0
2022-08-25T02:47:31.797Z,0
2022-08-25T02:48:31.811Z,0
2022-08-25T02:49:31.811Z,0
2022-08-25T02:50:31.805Z,0
2022-08-25T02:51:31.823Z,0
2022-08-25T02:52:31.834Z,0
2022-08-25T02:53:31.802Z,0
2022-08-25T02:54:31.919Z,0
2022-08-25T02:55:34.536Z,0
2022-08-25T02:56:31.992Z,0
2022-08-25T02:57:31.797Z,0
2022-08-25T02:58:31.821Z,0
2022-08-25T02:59:31.812Z,0
2022-08-25T03:00:31.951Z,0
2022-08-25T03:01:31.862Z,0
2022-08-25T03:02:31.808Z,0
2022-08-25T03:03:34.276Z,0
2022-08-25T03:04:31.883Z,0
2022-08-25T03:05:31.791Z,0
2022-08-25T03:06:31.819Z,0
2022-08-25T03:07:31.875Z,0
2022-08-25T03:08:31.808Z,0
2022-08-25T03:09:31.901Z,0
2022-08-25T03:10:31.836Z,0
2022-08-25T03:11:31.825Z,0
2022-08-25T03:12:31.954Z,0
2022-08-25T03:13:31.910Z,0
2022-08-25T03:14:31.902Z,0
2022-08-25T03:15:32.062Z,0
2022-08-25T03:16:32.007Z,0
2022-08-25T03:17:31.968Z,0
2022-08-25T03:18:31.961Z,0
2022-08-25T03:19:31.953Z,0
2022-08-25T03:20:31.944Z,0
2022-08-25T03:21:31.895Z,0
2022-08-25T03:22:31.886Z,0
2022-08-25T03:23:31.957Z,0
2022-08-25T03:24:31.888Z,0
2022-08-25T03:25:31.915Z,0
2022-08-25T03:26:31.966Z,0
2022-08-25T03:27:31.902Z,0
2022-08-25T03:28:31.879Z,0
2022-08-25T03:29:31.903Z,0
2022-08-25T03:30:32.307Z,0
2022-08-25T03:31:31.932Z,0
2022-08-25T03:32:31.785Z,0
2022-08-25T03:33:31.769Z,0.36
2022-08-25T03:34:31.849Z,0.85
2022-08-25T03:35:31.846Z,0.85
2022-08-25T03:36:31.818Z,0
2022-08-25T03:37:31.789Z,0.85
2022-08-25T03:38:31.817Z,0
2022-08-25T03:39:31.797Z,0.85
2022-08-25T03:40:32.001Z,0.85
2022-08-25T03:41:31.960Z,1.22
2022-08-25T03:42:31.858Z,0.85
2022-08-25T03:43:31.847Z,1.22
2022-08-25T03:44:31.791Z,1.22
2022-08-25T03:45:31.853Z,2.08
2022-08-25T03:46:31.775Z,2.08
2022-08-25T03:47:31.784Z,2.08
2022-08-25T03:48:31.801Z,2.57
2022-08-25T03:49:31.761Z,2.57
2022-08-25T03:50:34.908Z,2.57
2022-08-25T03:51:31.811Z,2.94
2022-08-25T03:52:31.923Z,3.43
2022-08-25T03:53:31.806Z,2.57
2022-08-25T03:54:31.800Z,3.43
2022-08-25T03:55:31.797Z,3.79
2022-08-25T03:56:31.802Z,3.43
2022-08-25T03:57:31.863Z,2.94
2022-08-25T03:58:31.931Z,3.79
2022-08-25T03:59:31.780Z,4.77
2022-08-25T04:00:31.846Z,4.77
2022-08-25T04:01:31.905Z,4.28
2022-08-25T04:02:31.845Z,4.77
2022-08-25T04:03:31.783Z,5.14
2022-08-25T04:04:31.794Z,5.14
2022-08-25T04:05:31.952Z,5.99
2022-08-25T04:06:31.959Z,5.63
2022-08-25T04:07:31.792Z,5.14
2022-08-25T04:08:31.961Z,6.48
2022-08-25T04:09:35.237Z,6.48
2022-08-25T04:10:31.811Z,5.99
2022-08-25T04:11:31.817Z,5.63
2022-08-25T04:12:31.967Z,6.85
2022-08-25T04:13:31.775Z,7.34
2022-08-25T04:14:32.941Z,7.34
2022-08-25T04:15:31.818Z,7.34
2022-08-25T04:16:31.863Z,8.19
2022-08-25T04:17:31.808Z,8.19
2022-08-25T04:18:31.832Z,8.19
2022-08-25T04:19:31.868Z,8.19
2022-08-25T04:20:31.819Z,8.56
2022-08-25T04:21:31.773Z,9.05
2022-08-25T04:22:31.795Z,9.05
2022-08-25T04:23:31.894Z,9.54
2022-08-25T04:24:31.809Z,9.54
2022-08-25T04:25:31.807Z,9.54
2022-08-25T04:26:31.939Z,9.91
2022-08-25T04:27:31.936Z,9.91
2022-08-25T04:28:31.793Z,10.39
2022-08-25T04:29:31.769Z,10.39
2022-08-25T04:30:31.798Z,9.54
2022-08-25T04:31:31.852Z,10.77
2022-08-25T04:32:31.801Z,10.77
2022-08-25T04:33:31.772Z,10.77
2022-08-25T04:34:31.877Z,11.25
2022-08-25T04:35:31.812Z,10.39
2022-08-25T04:36:31.834Z,11.25
2022-08-25T04:37:31.833Z,11.25
2022-08-25T04:38:31.781Z,11.25
2022-08-25T04:39:31.821Z,11.25
2022-08-25T04:40:31.841Z,11.62
2022-08-25T04:41:31.820Z,12.11
2022-08-25T04:42:31.819Z,11.25
2022-08-25T04:43:31.784Z,12.11
2022-08-25T04:44:31.848Z,11.62
2022-08-25T04:45:31.899Z,12.48
2022-08-25T04:46:31.936Z,12.48
2022-08-25T04:47:31.798Z,12.48
2022-08-25T04:48:31.816Z,13.33
2022-08-25T04:49:31.822Z,12.97
2022-08-25T04:50:31.954Z,15.17
2022-08-25T04:51:31.812Z,15.17
2022-08-25T04:52:31.877Z,14.68
2022-08-25T04:53:31.786Z,13.33
2022-08-25T04:54:37.170Z,13.33
2022-08-25T04:55:31.794Z,13.82
2022-08-25T04:56:31.819Z,14.31
2022-08-25T04:57:31.890Z,14.31
2022-08-25T04:58:31.805Z,15.17
2022-08-25T04:59:31.776Z,14.68
2022-08-25T05:00:31.900Z,14.68
2022-08-25T05:01:31.777Z,14.68
2022-08-25T05:02:31.937Z,14.68
2022-08-25T05:03:31.784Z,18.11
2022-08-25T05:04:32.034Z,26.42
2022-08-25T05:05:31.805Z,43.8
2022-08-25T05:06:31.817Z,52.48
2022-08-25T05:07:31.769Z,52.85
2022-08-25T05:08:31.820Z,58.48
2022-08-25T05:09:32.421Z,67.65
2022-08-25T05:10:31.782Z,68.02
2022-08-25T05:11:31.763Z,70.71
2022-08-25T05:12:31.788Z,73.65
2022-08-25T05:13:31.789Z,74.14
2022-08-25T05:14:31.935Z,72.42
2022-08-25T05:15:31.789Z,69.36
2022-08-25T05:16:31.889Z,74.5
2022-08-25T05:17:31.815Z,67.65
2022-08-25T05:18:31.784Z,52.85
2022-08-25T05:19:31.778Z,36.82
2022-08-25T05:20:31.800Z,37.19
2022-08-25T05:21:31.799Z,34.62
2022-08-25T05:22:31.786Z,32.9
2022-08-25T05:23:31.773Z,29.48
2022-08-25T05:24:31.832Z,30.34
2022-08-25T05:25:31.984Z,22.87
2022-08-25T05:26:31.798Z,22.02
2022-08-25T05:27:31.773Z,32.05
2022-08-25T05:28:31.791Z,46.73
2022-08-25T05:29:31.810Z,55.9
2022-08-25T05:30:31.802Z,64.96
2022-08-25T05:31:31.821Z,58.11
2022-08-25T05:32:31.781Z,51.99
2022-08-25T05:33:32.977Z,38.17
2022-08-25T05:34:31.794Z,35.97
2022-08-25T05:35:31.781Z,51.5
2022-08-25T05:36:31.808Z,50.65
2022-08-25T05:37:31.778Z,39.02
2022-08-25T05:38:31.789Z,47.71
2022-08-25T05:39:31.783Z,86.73
2022-08-25T05:40:31.841Z,128.82
2022-08-25T05:41:31.787Z,130.9
2022-08-25T05:42:31.774Z,130.9
2022-08-25T05:43:31.772Z,134.81
2022-08-25T05:44:31.768Z,139.58
2022-08-25T05:45:31.855Z,143.99
2022-08-25T05:46:32.066Z,146.19
2022-08-25T05:47:31.775Z,148.76
2022-08-25T05:48:31.735Z,150.96
2022-08-25T05:49:31.809Z,151.33
2022-08-25T05:50:31.769Z,151.33
2022-08-25T05:51:31.783Z,153.53
2022-08-25T05:52:31.861Z,157.81
2022-08-25T05:53:32.980Z,164.78
2022-08-25T05:54:31.791Z,180.81
2022-08-25T05:55:31.784Z,191.7
2022-08-25T05:56:31.775Z,188.64
2022-08-25T05:57:31.790Z,184.73
2022-08-25T05:58:31.774Z,187.29
2022-08-25T05:59:31.768Z,193.9
2022-08-25T06:00:31.825Z,193.05
2022-08-25T06:01:31.854Z,191.7
2022-08-25T06:02:31.829Z,187.78
2022-08-25T06:03:31.910Z,189.13
2022-08-25T06:04:31.871Z,190.84
2022-08-25T06:05:31.954Z,193.41
2022-08-25T06:06:31.776Z,175.67
2022-08-25T06:07:31.777Z,170.9
2022-08-25T06:08:31.843Z,128.33
2022-08-25T06:09:31.813Z,104.48
2022-08-25T06:10:31.763Z,87.1
2022-08-25T06:11:31.794Z,72.79
2022-08-25T06:12:31.785Z,112.67
2022-08-25T06:13:31.786Z,90.16
2022-08-25T06:14:31.755Z,69.73
2022-08-25T06:15:31.781Z,120.5
2022-08-25T06:16:31.881Z,101.41
2022-08-25T06:17:31.743Z,88.82
2022-08-25T06:18:31.761Z,63.73
2022-08-25T06:19:31.777Z,37.19
2022-08-25T06:20:31.925Z,39.88
2022-08-25T06:21:31.769Z,43.31
2022-08-25T06:22:31.783Z,54.19
2022-08-25T06:23:31.857Z,69.36
2022-08-25T06:24:31.773Z,41.96
2022-08-25T06:25:31.832Z,37.68
2022-08-25T06:26:31.758Z,43.8
2022-08-25T06:27:31.785Z,39.02
2022-08-25T06:28:31.792Z,33.39
2022-08-25T06:29:31.749Z,32.05
2022-08-25T06:30:31.792Z,32.42
2022-08-25T06:31:31.840Z,30.7
2022-08-25T06:32:31.864Z,32.42
2022-08-25T06:33:31.789Z,31.19
2022-08-25T06:34:31.732Z,30.34
2022-08-25T06:35:32.081Z,31.19
2022-08-25T06:36:31.774Z,36.82
2022-08-25T06:37:31.800Z,30.34
2022-08-25T06:38:31.893Z,31.19
2022-08-25T06:39:31.774Z,31.56
2022-08-25T06:40:31.932Z,30.7
2022-08-25T06:41:36.901Z,28.99
2022-08-25T06:42:32.124Z,29.48
2022-08-25T06:43:32.411Z,31.19
2022-08-25T06:44:31.797Z,32.05
2022-08-25T06:45:31.848Z,68.87
2022-08-25T06:46:36.291Z,95.79
2022-08-25T06:47:31.794Z,64.96
2022-08-25T06:48:31.794Z,60.19
2022-08-25T06:49:35.533Z,32.9
2022-08-25T06:50:31.796Z,30.7
2022-08-25T06:51:31.792Z,29.85
2022-08-25T06:52:31.790Z,29.85
2022-08-25T06:53:31.749Z,28.99
2022-08-25T06:54:31.790Z,29.85
2022-08-25T06:55:31.875Z,34.62
2022-08-25T06:56:31.795Z,36.82
2022-08-25T06:57:31.768Z,32.05
2022-08-25T06:58:31.800Z,31.56
2022-08-25T06:59:32.140Z,36.33
2022-08-25T07:00:31.902Z,54.19
2022-08-25T07:01:32.038Z,131.88
2022-08-25T07:02:31.777Z,134.44
2022-08-25T07:03:31.770Z,74.14
2022-08-25T07:04:31.963Z,48.93
2022-08-25T07:05:42.614Z,55.05
2022-08-25T07:06:31.811Z,58.48
2022-08-25T07:07:42.871Z,41.1
2022-08-25T07:08:31.758Z,39.39
2022-08-25T07:09:33.591Z,35.11
2022-08-25T07:10:31.811Z,46.36
2022-08-25T07:11:32.906Z,36.82
2022-08-25T07:12:31.781Z,36.33
2022-08-25T07:13:31.749Z,38.17
2022-08-25T07:14:31.827Z,39.39
2022-08-25T07:15:31.789Z,36.82
2022-08-25T07:16:31.857Z,49.79
2022-08-25T07:17:31.764Z,74.5
2022-08-25T07:18:31.762Z,68.51
2022-08-25T07:19:32.064Z,53.34
2022-08-25T07:20:31.783Z,51.5
2022-08-25T07:21:33.705Z,55.9
2022-08-25T07:22:31.792Z,87.96
2022-08-25T07:23:31.784Z,85.02
2022-08-25T07:24:31.865Z,69.36
2022-08-25T07:25:31.767Z,64.1
2022-08-25T07:26:37.910Z,84.53
2022-08-25T07:27:31.965Z,133.95
2022-08-25T07:28:31.777Z,192.07
2022-08-25T07:29:33.106Z,133.95
2022-08-25T07:30:31.769Z,184.73
2022-08-25T07:31:32.139Z,285.41
2022-08-25T07:32:31.777Z,302.78
2022-08-25T07:33:31.770Z,170.41
2022-08-25T07:34:31.775Z,189.49
2022-08-25T07:35:37.367Z,357.83
2022-08-25T07:36:31.798Z,431.11
2022-08-25T07:37:47.740Z,445.42
2022-08-25T07:38:31.844Z,448.97
2022-08-25T07:39:31.882Z,446.28
2022-08-25T07:40:31.871Z,430.74
2022-08-25T07:41:31.756Z,422.42
2022-08-25T07:42:31.796Z,421.57
2022-08-25T07:43:32.164Z,430.74
2022-08-25T07:44:31.786Z,419.49
2022-08-25T07:45:31.801Z,390.86
2022-08-25T07:46:31.869Z,387.81
2022-08-25T07:47:31.771Z,393.8
2022-08-25T07:48:31.825Z,399.06
2022-08-25T07:49:35.755Z,405.18
2022-08-25T07:50:31.770Z,412.03
2022-08-25T07:51:31.757Z,428.18
2022-08-25T07:52:31.752Z,437.72
2022-08-25T07:53:31.772Z,442.86
2022-08-25T07:54:33.864Z,446.28
2022-08-25T07:55:31.752Z,450.69
2022-08-25T07:56:31.881Z,452.89
2022-08-25T07:57:31.782Z,454.6
2022-08-25T07:58:31.782Z,452.4
2022-08-25T07:59:38.920Z,454.6
2022-08-25T08:00:31.778Z,459.37
2022-08-25T08:01:32.063Z,468.06
2022-08-25T08:02:31.863Z,474.05
2022-08-25T08:03:45.249Z,481.52
2022-08-25T08:04:31.779Z,492.28
2022-08-25T08:05:31.770Z,501.45
2022-08-25T08:06:31.786Z,505.37
2022-08-25T08:07:42.162Z,510.51
2022-08-25T08:08:31.744Z,513.2
2022-08-25T08:09:31.748Z,512.22
2022-08-25T08:11:03.290Z,513.57
2022-08-25T08:11:31.808Z,519.19
2022-08-25T08:12:31.764Z,524.82
2022-08-25T08:13:31.863Z,529.59
2022-08-25T08:14:31.925Z,530.94
2022-08-25T08:15:31.783Z,525.67
2022-08-25T08:16:31.841Z,520.05
2022-08-25T08:17:31.977Z,516.99
2022-08-25T08:18:31.769Z,514.91
2022-08-25T08:19:31.752Z,515.28
2022-08-25T08:20:31.785Z,519.19
2022-08-25T08:21:31.870Z,531.3
2022-08-25T08:22:31.795Z,540.84
2022-08-25T08:23:31.746Z,553.94
2022-08-25T08:24:44.656Z,562.99
2022-08-25T08:25:31.867Z,564.33
2022-08-25T08:26:55.312Z,562.99
2022-08-25T08:27:31.802Z,555.65
2022-08-25T08:28:31.879Z,541.33
2022-08-25T08:29:31.784Z,530.08
2022-08-25T08:30:31.790Z,527.02
2022-08-25T08:31:31.825Z,523.96
2022-08-25T08:32:46.445Z,527.02
2022-08-25T08:33:31.807Z,536.08
2022-08-25T08:34:31.776Z,543.05
2022-08-25T08:35:31.746Z,550.02
2022-08-25T08:36:31.760Z,561.77
2022-08-25T08:37:31.958Z,573.88
2022-08-25T08:38:31.768Z,581.7
2022-08-25T08:39:31.747Z,592.11
2022-08-25T08:40:31.876Z,601.65
2022-08-25T08:41:33.858Z,605.56
2022-08-25T08:42:31.776Z,602.01
2022-08-25T08:43:33.440Z,600.3
2022-08-25T08:44:31.798Z,601.16
2022-08-25T08:45:31.745Z,609.84
2022-08-25T08:46:31.836Z,610.33
2022-08-25T08:47:31.756Z,612.04
2022-08-25T08:48:31.714Z,609.84
2022-08-25T08:49:31.771Z,608.13
2022-08-25T08:50:33.116Z,606.79
2022-08-25T08:51:32.894Z,611.19
2022-08-25T08:52:31.789Z,617.31
2022-08-25T08:53:34.008Z,422.91
2022-08-25T08:54:34.073Z,384.25
2022-08-25T08:55:31.772Z,526.54
2022-08-25T08:56:31.957Z,410.81
2022-08-25T08:57:31.762Z,556.14
2022-08-25T08:58:31.712Z,461.08
2022-08-25T08:59:31.813Z,500.96
2022-08-25T09:00:33.092Z,612.9
2022-08-25T09:01:31.862Z,623.79
2022-08-25T09:02:39.477Z,350
2022-08-25T09:03:31.922Z,639.33
2022-08-25T09:04:31.779Z,602.99
2022-08-25T09:05:34.381Z,78.41
2022-08-25T09:06:31.788Z,640.67
2022-08-25T09:07:31.786Z,110.96
2022-08-25T09:08:31.847Z,267.55
2022-08-25T09:09:35.585Z,627.7
2022-08-25T09:10:31.739Z,365.17
2022-08-25T09:11:31.798Z,622.94
2022-08-25T09:12:31.814Z,298.86
2022-08-25T09:13:31.764Z,566.54
2022-08-25T09:14:31.735Z,244.18
2022-08-25T09:15:31.791Z,626.85
2022-08-25T09:16:34.455Z,109.24
2022-08-25T09:17:31.841Z,72.42
2022-08-25T09:18:31.762Z,74.99
2022-08-25T09:19:32.129Z,93.58
2022-08-25T09:20:31.765Z,223.75
2022-08-25T09:21:31.772Z,114.51
2022-08-25T09:22:35.520Z,77.19
2022-08-25T09:23:31.886Z,85.39
2022-08-25T09:24:31.757Z,107.9
2022-08-25T09:25:52.256Z,48.93
2022-08-25T09:26:31.835Z,204.66
2022-08-25T09:27:31.797Z,51.14
2022-08-25T09:28:31.775Z,96.27
2022-08-25T09:29:31.769Z,67.16
2022-08-25T09:30:31.751Z,61.53
2022-08-25T09:31:31.973Z,101.9
2022-08-25T09:32:31.838Z,182.53
2022-08-25T09:33:33.575Z,352.57
2022-08-25T09:34:31.733Z,559.08
2022-08-25T09:35:32.095Z,582.57
2022-08-25T09:36:36.740Z,184.73
2022-08-25T09:37:31.784Z,533.5
2022-08-25T09:38:31.737Z,546.11
2022-08-25T09:39:31.760Z,500.6
2022-08-25T09:40:31.877Z,354.4
2022-08-25T09:41:31.766Z,510.99
2022-08-25T09:42:31.736Z,130.53
2022-08-25T09:43:31.760Z,395.64
2022-08-25T09:44:31.866Z,212.13
2022-08-25T09:45:31.802Z,386.95
2022-08-25T09:46:31.853Z,612.04
2022-08-25T09:47:31.751Z,60.68
2022-08-25T09:48:31.756Z,149.98
2022-08-25T09:49:31.805Z,158.3
2022-08-25T09:50:31.795Z,194.27
2022-08-25T09:51:37.968Z,113.65
2022-08-25T09:52:31.911Z,156.1
2022-08-25T09:53:33.920Z,57.25
2022-08-25T09:54:43.944Z,147.05
2022-08-25T09:55:32.593Z,127.47
2022-08-25T09:56:31.766Z,76.34
2022-08-25T09:57:31.769Z,107.53
2022-08-25T09:58:31.830Z,164.78
2022-08-25T09:59:35.123Z,87.96
2022-08-25T10:00:31.793Z,306.69
2022-08-25T10:01:34.679Z,127.47
2022-08-25T10:02:31.743Z,219.47
2022-08-25T10:03:31.748Z,327
2022-08-25T10:04:31.759Z,62.88
2022-08-25T10:05:31.882Z,45.51
2022-08-25T10:06:31.808Z,45.02
2022-08-25T10:07:31.834Z,48.56
2022-08-25T10:08:31.776Z,46.73
2022-08-25T10:09:31.759Z,72.42
2022-08-25T10:10:32.209Z,115.36
2022-08-25T10:11:31.804Z,98.36
2022-08-25T10:12:31.797Z,82.82
2022-08-25T10:13:31.784Z,51.14
2022-08-25T10:14:31.735Z,66.8
2022-08-25T10:15:31.850Z,181.67
2022-08-25T10:16:36.031Z,44.65
2022-08-25T10:17:31.770Z,55.9
2022-08-25T10:18:31.727Z,45.87
2022-08-25T10:19:31.735Z,44.16
2022-08-25T10:20:35.127Z,42.45
2022-08-25T10:21:31.756Z,43.8
2022-08-25T10:22:31.809Z,61.17
2022-08-25T10:23:31.757Z,46.36
2022-08-25T10:24:31.798Z,42.94
2022-08-25T10:25:31.774Z,45.02
2022-08-25T10:26:34.855Z,44.65
2022-08-25T10:27:31.796Z,67.16
2022-08-25T10:28:31.757Z,62.39
2022-08-25T10:29:32.609Z,58.48
2022-08-25T10:30:32.038Z,49.79
2022-08-25T10:31:33.049Z,45.87
2022-08-25T10:32:31.987Z,42.94
2022-08-25T10:33:31.787Z,42.45
2022-08-25T10:34:31.767Z,71.56
2022-08-25T10:35:31.871Z,119.27
2022-08-25T10:36:31.761Z,71.07
2022-08-25T10:37:32.673Z,48.93
2022-08-25T10:38:35.479Z,66.31
2022-08-25T10:39:36.429Z,60.19
2022-08-25T10:40:31.795Z,60.19
2022-08-25T10:41:31.749Z,64.59
2022-08-25T10:42:31.764Z,61.17
2022-08-25T10:43:31.797Z,52.48
2022-08-25T10:44:31.852Z,178.61
2022-08-25T10:45:31.760Z,80.25
2022-08-25T10:46:31.793Z,50.28
2022-08-25T10:47:31.755Z,62.39
2022-08-25T10:48:31.756Z,48.07
2022-08-25T10:49:31.727Z,43.31
2022-08-25T10:50:31.777Z,41.59
2022-08-25T10:51:31.745Z,40.73
2022-08-25T10:52:31.736Z,41.59
2022-08-25T10:53:31.769Z,78.41
2022-08-25T10:54:31.867Z,45.02
2022-08-25T10:55:31.752Z,41.1
2022-08-25T10:56:32.172Z,53.34
2022-08-25T10:57:31.791Z,41.1
2022-08-25T10:58:31.751Z,40.24
2022-08-25T10:59:31.730Z,41.1
2022-08-25T11:00:33.358Z,40.73
2022-08-25T11:01:38.988Z,437.72
2022-08-25T11:02:31.748Z,300.09
2022-08-25T11:03:35.138Z,424.63
2022-08-25T11:04:31.763Z,402.12
2022-08-25T11:05:31.856Z,140.07
2022-08-25T11:06:31.757Z,145.21
2022-08-25T11:07:31.740Z,97.13
2022-08-25T11:08:31.928Z,43.31
2022-08-25T11:09:31.741Z,43.31
2022-08-25T11:10:31.792Z,48.56
2022-08-25T11:11:31.765Z,68.02
2022-08-25T11:12:31.831Z,76.7
2022-08-25T11:13:31.764Z,60.19
2022-08-25T11:14:34.544Z,98.85
2022-08-25T11:15:31.791Z,132.24
2022-08-25T11:16:31.890Z,141.42
2022-08-25T11:17:31.748Z,59.33
2022-08-25T11:18:31.752Z,100.56
2022-08-25T11:19:32.773Z,170.9
2022-08-25T11:20:31.758Z,132.24
2022-08-25T11:21:31.825Z,50.65
2022-08-25T11:22:32.447Z,374.35
2022-08-25T11:23:31.714Z,530.08
2022-08-25T11:24:31.752Z,210.29
2022-08-25T11:25:31.779Z,191.7
2022-08-25T11:26:36.141Z,173.47
2022-08-25T11:27:31.703Z,403.34
2022-08-25T11:28:31.771Z,608.99
2022-08-25T11:29:31.771Z,550.88
2022-08-25T11:30:31.786Z,379.49
2022-08-25T11:31:31.732Z,566.91
2022-08-25T11:32:31.771Z,80.25
2022-08-25T11:33:31.771Z,249.81
2022-08-25T11:34:31.903Z,281.49
2022-08-25T11:35:31.719Z,244.18
2022-08-25T11:36:31.751Z,496.69
2022-08-25T11:37:31.755Z,339.23
2022-08-25T11:38:31.740Z,571.31
2022-08-25T11:39:34.435Z,482.37
2022-08-25T11:40:31.928Z,497.54
2022-08-25T11:41:31.759Z,276.72
2022-08-25T11:42:31.773Z,57.25
2022-08-25T11:43:35.830Z,118.42
2022-08-25T11:44:31.778Z,342.66
2022-08-25T11:45:31.790Z,105.82
2022-08-25T11:46:31.840Z,239.41
2022-08-25T11:47:31.746Z,242.83
2022-08-25T11:48:31.779Z,212.49
2022-08-25T11:49:31.788Z,183.02
2022-08-25T11:50:31.796Z,169.56
2022-08-25T11:51:33.671Z,103.13
2022-08-25T11:52:31.742Z,303.64
2022-08-25T11:53:31.768Z,55.05
2022-08-25T11:54:31.720Z,178.61
2022-08-25T11:55:31.760Z,198.18
2022-08-25T11:56:31.763Z,227.66
2022-08-25T11:57:31.744Z,268.52
2022-08-25T11:58:31.753Z,193.9
2022-08-25T11:59:31.740Z,221.67
2022-08-25T12:00:31.762Z,123.19
2022-08-25T12:01:31.729Z,437.23
2022-08-25T12:02:31.740Z,217.76
2022-08-25T12:03:31.753Z,326.15
2022-08-25T12:04:31.942Z,492.77
2022-08-25T12:05:31.788Z,127.1
2022-08-25T12:06:31.769Z,251.52
2022-08-25T12:07:31.747Z,440.66
2022-08-25T12:08:31.807Z,224.24
2022-08-25T12:09:31.871Z,395.15
2022-08-25T12:10:31.782Z,303.64
2022-08-25T12:11:31.721Z,219.47
2022-08-25T12:12:31.747Z,114.02
2022-08-25T12:13:31.906Z,160.87
2022-08-25T12:14:31.759Z,162.58
2022-08-25T12:15:31.723Z,271.46
2022-08-25T12:16:31.785Z,521.76
2022-08-25T12:17:31.750Z,55.05
2022-08-25T12:18:31.717Z,170.05
2022-08-25T12:19:31.756Z,167.36
2022-08-25T12:20:31.773Z,106.68
2022-08-25T12:21:31.860Z,47.22
2022-08-25T12:22:31.772Z,91.51
2022-08-25T12:23:31.733Z,46.36
2022-08-25T12:24:31.724Z,92.36
2022-08-25T12:25:31.787Z,66.8
2022-08-25T12:26:31.763Z,56.76
2022-08-25T12:27:33.894Z,72.79
2022-08-25T12:28:35.069Z,84.04
2022-08-25T12:29:31.742Z,249.81
2022-08-25T12:30:31.792Z,323.95
2022-08-25T12:31:31.746Z,334.83
2022-08-25T12:32:31.763Z,474.91
2022-08-25T12:33:31.739Z,173.47
2022-08-25T12:34:31.820Z,128.82
2022-08-25T12:35:31.871Z,96.65
2022-08-25T12:36:31.883Z,126.61
2022-08-25T12:37:31.744Z,271.46
2022-08-25T12:38:31.786Z,301.44
2022-08-25T12:39:31.720Z,215.56
2022-08-25T12:40:31.840Z,127.96
2022-08-25T12:41:33.565Z,262.78
2022-08-25T12:42:31.761Z,352.57
2022-08-25T12:43:37.380Z,351.71
2022-08-25T12:44:31.772Z,337.89
2022-08-25T12:45:31.749Z,334.47
2022-08-25T12:46:31.752Z,350
2022-08-25T12:47:31.917Z,538.77
2022-08-25T12:48:31.674Z,241.98
2022-08-25T12:49:31.746Z,518.33
2022-08-25T12:50:31.797Z,465.86
2022-08-25T12:51:31.737Z,454.96
2022-08-25T12:52:31.730Z,458.52
2022-08-25T12:53:31.734Z,504.51
2022-08-25T12:54:31.710Z,436.37
2022-08-25T12:55:31.735Z,82.33
2022-08-25T12:56:31.743Z,333.98
2022-08-25T12:57:31.723Z,369.08
2022-08-25T12:58:49.858Z,472.34
2022-08-25T12:59:31.793Z,521.4
2022-08-25T13:00:31.914Z,516.99
2022-08-25T13:01:35.212Z,509.65
2022-08-25T13:02:31.829Z,505.74
2022-08-25T13:03:31.841Z,504.51
2022-08-25T13:04:31.754Z,402.98
2022-08-25T13:05:33.626Z,402.49
2022-08-25T13:06:31.737Z,492.77
2022-08-25T13:07:31.746Z,448.11
2022-08-25T13:08:33.968Z,443.71
2022-08-25T13:09:31.784Z,462.43
2022-08-25T13:10:31.719Z,447.26
2022-08-25T13:11:32.231Z,469.28
2022-08-25T13:12:31.852Z,446.77
2022-08-25T13:13:31.732Z,397.71
2022-08-25T13:15:31.730Z,393.43
2022-08-25T13:16:31.761Z,344.86
2022-08-25T13:17:33.237Z,145.21
2022-08-25T13:18:31.771Z,87.1